sensor_id;sensor_type;location;lat;lon;timestamp;P1;durP1;ratioP1;P2;durP2;ratioP2
38693;SDS011;24447;43.460;25.744;2023-11-21T00:01:37;10.50;;;3.25;;
38693;SDS011;24447;43.460;25.744;2023-11-21T00:04:03;12.63;;;7.15;;
38693;SDS011;24447;43.460;25.744;2023-11-21T00:06:29;11.85;;;4.20;;
38693;SDS011;24447;43.460;25.744;2023-11-21T00:08:55;20.05;;;7.95;;
38693;SDS011;24447;43.460;25.744;2023-11-21T00:11:21;13.48;;;4.90;;
38693;SDS011;24447;43.460;25.744;2023-11-21T00:13:47;8.38;;;3.97;;
38693;SDS011;24447;43.460;25.744;2023-11-21T00:16:13;27.58;;;5.47;;
38693;SDS011;24447;43.460;25.744;2023-11-21T00:18:39;13.10;;;5.68;;
38693;SDS011;24447;43.460;25.744;2023-11-21T00:21:05;10.40;;;3.88;;
38693;SDS011;24447;43.460;25.744;2023-11-21T00:23:31;6.43;;;2.50;;
38693;SDS011;24447;43.460;25.744;2023-11-21T00:25:57;7.88;;;3.30;;
38693;SDS011;24447;43.460;25.744;2023-11-21T00:28:24;5.53;;;2.03;;
38693;SDS011;24447;43.460;25.744;2023-11-21T00:30:50;9.10;;;2.53;;
38693;SDS011;24447;43.460;25.744;2023-11-21T00:33:16;8.02;;;2.28;;
38693;SDS011;24447;43.460;25.744;2023-11-21T00:35:42;4.80;;;2.30;;
38693;SDS011;24447;43.460;25.744;2023-11-21T00:38:08;8.15;;;3.45;;
38693;SDS011;24447;43.460;25.744;2023-11-21T00:40:34;8.27;;;2.40;;
38693;SDS011;24447;43.460;25.744;2023-11-21T00:43:00;6.88;;;2.28;;
38693;SDS011;24447;43.460;25.744;2023-11-21T00:45:26;5.45;;;2.70;;
38693;SDS011;24447;43.460;25.744;2023-11-21T00:47:52;6.88;;;3.97;;
38693;SDS011;24447;43.460;25.744;2023-11-21T00:50:18;5.18;;;2.47;;
38693;SDS011;24447;43.460;25.744;2023-11-21T00:52:44;4.32;;;2.63;;
38693;SDS011;24447;43.460;25.744;2023-11-21T00:55:10;21.05;;;6.32;;
38693;SDS011;24447;43.460;25.744;2023-11-21T00:57:36;29.45;;;10.80;;
38693;SDS011;24447;43.460;25.744;2023-11-21T01:00:03;12.02;;;4.07;;
38693;SDS011;24447;43.460;25.744;2023-11-21T01:02:38;8.63;;;2.45;;
38693;SDS011;24447;43.460;25.744;2023-11-21T01:05:04;4.78;;;1.40;;
38693;SDS011;24447;43.460;25.744;2023-11-21T01:07:32;4.72;;;1.65;;
38693;SDS011;24447;43.460;25.744;2023-11-21T01:09:58;3.53;;;1.00;;
38693;SDS011;24447;43.460;25.744;2023-11-21T01:12:24;4.53;;;2.17;;
38693;SDS011;24447;43.460;25.744;2023-11-21T01:14:50;8.80;;;2.42;;
38693;SDS011;24447;43.460;25.744;2023-11-21T01:17:16;5.93;;;3.25;;
38693;SDS011;24447;43.460;25.744;2023-11-21T01:19:43;4.65;;;2.80;;
38693;SDS011;24447;43.460;25.744;2023-11-21T01:22:09;7.03;;;2.90;;
38693;SDS011;24447;43.460;25.744;2023-11-21T01:24:36;15.00;;;4.20;;
38693;SDS011;24447;43.460;25.744;2023-11-21T01:27:02;13.40;;;3.50;;
38693;SDS011;24447;43.460;25.744;2023-11-21T01:29:29;17.83;;;5.20;;
38693;SDS011;24447;43.460;25.744;2023-11-21T01:31:55;21.10;;;6.55;;
38693;SDS011;24447;43.460;25.744;2023-11-21T01:34:22;15.73;;;4.90;;
38693;SDS011;24447;43.460;25.744;2023-11-21T01:36:48;9.25;;;2.80;;
38693;SDS011;24447;43.460;25.744;2023-11-21T01:39:15;19.60;;;10.40;;
38693;SDS011;24447;43.460;25.744;2023-11-21T01:41:41;14.77;;;5.40;;
38693;SDS011;24447;43.460;25.744;2023-11-21T01:44:09;4.30;;;2.10;;
38693;SDS011;24447;43.460;25.744;2023-11-21T01:46:35;3.30;;;1.90;;
38693;SDS011;24447;43.460;25.744;2023-11-21T01:49:02;3.97;;;2.28;;
38693;SDS011;24447;43.460;25.744;2023-11-21T01:51:28;10.88;;;1.90;;
38693;SDS011;24447;43.460;25.744;2023-11-21T01:53:56;1.48;;;1.33;;
38693;SDS011;24447;43.460;25.744;2023-11-21T01:56:22;9.85;;;2.28;;
38693;SDS011;24447;43.460;25.744;2023-11-21T01:58:49;6.30;;;1.20;;
38693;SDS011;24447;43.460;25.744;2023-11-21T02:01:14;1.65;;;1.35;;
38693;SDS011;24447;43.460;25.744;2023-11-21T02:03:40;11.57;;;4.13;;
38693;SDS011;24447;43.460;25.744;2023-11-21T02:06:07;1.25;;;0.93;;
38693;SDS011;24447;43.460;25.744;2023-11-21T02:08:33;4.32;;;2.08;;
38693;SDS011;24447;43.460;25.744;2023-11-21T02:10:59;3.15;;;2.08;;
38693;SDS011;24447;43.460;25.744;2023-11-21T02:13:25;4.97;;;1.42;;
38693;SDS011;24447;43.460;25.744;2023-11-21T02:15:51;3.95;;;1.63;;
38693;SDS011;24447;43.460;25.744;2023-11-21T02:18:19;3.88;;;1.05;;
38693;SDS011;24447;43.460;25.744;2023-11-21T02:20:47;3.28;;;1.40;;
38693;SDS011;24447;43.460;25.744;2023-11-21T02:23:13;8.52;;;3.08;;
38693;SDS011;24447;43.460;25.744;2023-11-21T02:25:39;28.80;;;7.97;;
38693;SDS011;24447;43.460;25.744;2023-11-21T02:28:07;19.33;;;7.93;;
38693;SDS011;24447;43.460;25.744;2023-11-21T02:30:33;24.67;;;5.93;;
38693;SDS011;24447;43.460;25.744;2023-11-21T02:33:00;16.20;;;4.18;;
38693;SDS011;24447;43.460;25.744;2023-11-21T02:35:27;8.52;;;2.97;;
38693;SDS011;24447;43.460;25.744;2023-11-21T02:37:53;7.75;;;2.78;;
38693;SDS011;24447;43.460;25.744;2023-11-21T02:40:19;13.90;;;4.57;;
38693;SDS011;24447;43.460;25.744;2023-11-21T02:42:50;14.27;;;3.83;;
38693;SDS011;24447;43.460;25.744;2023-11-21T02:45:16;12.25;;;3.80;;
38693;SDS011;24447;43.460;25.744;2023-11-21T02:47:43;5.80;;;2.88;;
38693;SDS011;24447;43.460;25.744;2023-11-21T02:50:09;6.72;;;2.50;;
38693;SDS011;24447;43.460;25.744;2023-11-21T02:52:36;17.95;;;5.45;;
38693;SDS011;24447;43.460;25.744;2023-11-21T02:55:02;12.55;;;5.22;;
38693;SDS011;24447;43.460;25.744;2023-11-21T02:57:29;15.07;;;4.75;;
38693;SDS011;24447;43.460;25.744;2023-11-21T02:59:55;17.23;;;5.47;;
38693;SDS011;24447;43.460;25.744;2023-11-21T03:02:21;20.20;;;6.45;;
38693;SDS011;24447;43.460;25.744;2023-11-21T03:04:47;13.80;;;5.32;;
38693;SDS011;24447;43.460;25.744;2023-11-21T03:07:14;18.48;;;5.18;;
38693;SDS011;24447;43.460;25.744;2023-11-21T03:09:40;13.75;;;4.53;;
38693;SDS011;24447;43.460;25.744;2023-11-21T03:12:07;11.68;;;4.75;;
38693;SDS011;24447;43.460;25.744;2023-11-21T03:14:34;10.88;;;4.35;;
38693;SDS011;24447;43.460;25.744;2023-11-21T03:16:59;16.13;;;4.82;;
38693;SDS011;24447;43.460;25.744;2023-11-21T03:19:25;5.57;;;3.10;;
38693;SDS011;24447;43.460;25.744;2023-11-21T03:21:51;6.70;;;2.80;;
38693;SDS011;24447;43.460;25.744;2023-11-21T03:24:18;10.13;;;2.70;;
38693;SDS011;24447;43.460;25.744;2023-11-21T03:26:48;12.80;;;3.85;;
38693;SDS011;24447;43.460;25.744;2023-11-21T03:29:14;16.60;;;3.28;;
38693;SDS011;24447;43.460;25.744;2023-11-21T03:31:40;4.90;;;2.53;;
38693;SDS011;24447;43.460;25.744;2023-11-21T03:34:06;6.28;;;2.75;;
38693;SDS011;24447;43.460;25.744;2023-11-21T03:36:32;3.67;;;2.72;;
38693;SDS011;24447;43.460;25.744;2023-11-21T03:38:58;6.88;;;3.10;;
38693;SDS011;24447;43.460;25.744;2023-11-21T03:41:24;6.85;;;3.90;;
38693;SDS011;24447;43.460;25.744;2023-11-21T03:43:50;6.65;;;3.65;;
38693;SDS011;24447;43.460;25.744;2023-11-21T03:46:16;5.57;;;3.10;;
38693;SDS011;24447;43.460;25.744;2023-11-21T03:48:42;17.83;;;6.18;;
38693;SDS011;24447;43.460;25.744;2023-11-21T03:51:08;21.98;;;8.07;;
38693;SDS011;24447;43.460;25.744;2023-11-21T03:53:34;11.82;;;3.63;;
38693;SDS011;24447;43.460;25.744;2023-11-21T03:56:01;8.15;;;3.08;;
38693;SDS011;24447;43.460;25.744;2023-11-21T03:58:28;4.72;;;3.03;;
38693;SDS011;24447;43.460;25.744;2023-11-21T04:00:54;13.85;;;3.58;;
38693;SDS011;24447;43.460;25.744;2023-11-21T04:03:20;8.80;;;3.40;;
38693;SDS011;24447;43.460;25.744;2023-11-21T04:05:46;5.13;;;2.72;;
38693;SDS011;24447;43.460;25.744;2023-11-21T04:08:12;8.48;;;2.72;;
38693;SDS011;24447;43.460;25.744;2023-11-21T04:10:38;7.10;;;3.05;;
38693;SDS011;24447;43.460;25.744;2023-11-21T04:13:04;11.48;;;4.57;;
38693;SDS011;24447;43.460;25.744;2023-11-21T04:15:31;10.10;;;3.50;;
38693;SDS011;24447;43.460;25.744;2023-11-21T04:17:57;6.68;;;3.35;;
38693;SDS011;24447;43.460;25.744;2023-11-21T04:20:24;5.30;;;3.00;;
38693;SDS011;24447;43.460;25.744;2023-11-21T04:22:50;21.75;;;9.20;;
38693;SDS011;24447;43.460;25.744;2023-11-21T04:25:16;14.85;;;5.63;;
38693;SDS011;24447;43.460;25.744;2023-11-21T04:27:43;7.40;;;3.40;;
38693;SDS011;24447;43.460;25.744;2023-11-21T04:30:10;6.15;;;2.47;;
38693;SDS011;24447;43.460;25.744;2023-11-21T04:32:37;6.78;;;1.63;;
38693;SDS011;24447;43.460;25.744;2023-11-21T04:35:04;7.43;;;2.10;;
38693;SDS011;24447;43.460;25.744;2023-11-21T04:37:30;2.60;;;1.85;;
38693;SDS011;24447;43.460;25.744;2023-11-21T04:39:56;8.52;;;2.08;;
38693;SDS011;24447;43.460;25.744;2023-11-21T04:42:22;6.18;;;3.00;;
38693;SDS011;24447;43.460;25.744;2023-11-21T04:44:48;4.28;;;1.92;;
38693;SDS011;24447;43.460;25.744;2023-11-21T04:47:14;5.25;;;2.60;;
38693;SDS011;24447;43.460;25.744;2023-11-21T04:49:41;3.08;;;2.13;;
38693;SDS011;24447;43.460;25.744;2023-11-21T04:52:08;6.60;;;2.28;;
38693;SDS011;24447;43.460;25.744;2023-11-21T04:54:35;16.15;;;4.32;;
38693;SDS011;24447;43.460;25.744;2023-11-21T04:57:01;3.15;;;2.28;;
38693;SDS011;24447;43.460;25.744;2023-11-21T04:59:27;3.75;;;1.90;;
38693;SDS011;24447;43.460;25.744;2023-11-21T05:01:53;5.05;;;3.35;;
38693;SDS011;24447;43.460;25.744;2023-11-21T05:04:19;6.88;;;3.38;;
38693;SDS011;24447;43.460;25.744;2023-11-21T05:06:47;12.02;;;3.75;;
38693;SDS011;24447;43.460;25.744;2023-11-21T05:09:13;4.40;;;2.47;;
38693;SDS011;24447;43.460;25.744;2023-11-21T05:11:40;5.97;;;3.42;;
38693;SDS011;24447;43.460;25.744;2023-11-21T05:14:06;15.25;;;5.47;;
38693;SDS011;24447;43.460;25.744;2023-11-21T05:16:33;7.70;;;3.05;;
38693;SDS011;24447;43.460;25.744;2023-11-21T05:19:00;10.70;;;2.03;;
38693;SDS011;24447;43.460;25.744;2023-11-21T05:21:26;16.05;;;5.10;;
38693;SDS011;24447;43.460;25.744;2023-11-21T05:23:54;29.63;;;8.75;;
38693;SDS011;24447;43.460;25.744;2023-11-21T05:26:20;46.92;;;12.18;;
38693;SDS011;24447;43.460;25.744;2023-11-21T05:28:46;23.83;;;7.32;;
38693;SDS011;24447;43.460;25.744;2023-11-21T05:31:12;21.65;;;6.10;;
38693;SDS011;24447;43.460;25.744;2023-11-21T05:33:38;18.65;;;6.57;;
38693;SDS011;24447;43.460;25.744;2023-11-21T05:36:04;11.18;;;3.67;;
38693;SDS011;24447;43.460;25.744;2023-11-21T05:38:32;4.55;;;2.70;;
38693;SDS011;24447;43.460;25.744;2023-11-21T05:40:59;4.10;;;2.42;;
38693;SDS011;24447;43.460;25.744;2023-11-21T05:43:24;2.60;;;2.25;;
38693;SDS011;24447;43.460;25.744;2023-11-21T05:45:51;15.07;;;2.55;;
38693;SDS011;24447;43.460;25.744;2023-11-21T05:48:17;3.75;;;2.65;;
38693;SDS011;24447;43.460;25.744;2023-11-21T05:50:43;19.77;;;4.05;;
38693;SDS011;24447;43.460;25.744;2023-11-21T05:53:09;6.75;;;3.05;;
38693;SDS011;24447;43.460;25.744;2023-11-21T05:55:36;1.90;;;1.52;;
38693;SDS011;24447;43.460;25.744;2023-11-21T05:58:04;18.52;;;3.42;;
38693;SDS011;24447;43.460;25.744;2023-11-21T06:00:30;5.05;;;3.38;;
38693;SDS011;24447;43.460;25.744;2023-11-21T06:02:57;12.88;;;3.50;;
38693;SDS011;24447;43.460;25.744;2023-11-21T06:05:23;10.82;;;3.50;;
38693;SDS011;24447;43.460;25.744;2023-11-21T06:07:50;11.27;;;3.65;;
38693;SDS011;24447;43.460;25.744;2023-11-21T06:10:20;16.80;;;6.47;;
38693;SDS011;24447;43.460;25.744;2023-11-21T06:12:46;14.60;;;4.75;;
38693;SDS011;24447;43.460;25.744;2023-11-21T06:15:13;15.30;;;4.72;;
38693;SDS011;24447;43.460;25.744;2023-11-21T06:17:40;9.95;;;3.50;;
38693;SDS011;24447;43.460;25.744;2023-11-21T06:20:07;5.53;;;2.35;;
38693;SDS011;24447;43.460;25.744;2023-11-21T06:22:34;4.85;;;2.65;;
38693;SDS011;24447;43.460;25.744;2023-11-21T06:25:04;6.47;;;3.22;;
38693;SDS011;24447;43.460;25.744;2023-11-21T06:27:34;5.07;;;2.95;;
38693;SDS011;24447;43.460;25.744;2023-11-21T06:30:02;5.60;;;2.55;;
38693;SDS011;24447;43.460;25.744;2023-11-21T06:32:29;11.68;;;5.07;;
38693;SDS011;24447;43.460;25.744;2023-11-21T06:34:55;29.15;;;7.90;;
38693;SDS011;24447;43.460;25.744;2023-11-21T06:37:24;17.58;;;5.70;;
38693;SDS011;24447;43.460;25.744;2023-11-21T06:39:53;32.83;;;9.43;;
38693;SDS011;24447;43.460;25.744;2023-11-21T06:42:19;11.05;;;4.72;;
38693;SDS011;24447;43.460;25.744;2023-11-21T06:44:46;10.75;;;3.60;;
38693;SDS011;24447;43.460;25.744;2023-11-21T06:47:13;17.27;;;5.05;;
38693;SDS011;24447;43.460;25.744;2023-11-21T06:49:39;32.42;;;9.80;;
38693;SDS011;24447;43.460;25.744;2023-11-21T06:52:05;23.02;;;9.30;;
38693;SDS011;24447;43.460;25.744;2023-11-21T06:54:31;25.80;;;11.57;;
38693;SDS011;24447;43.460;25.744;2023-11-21T06:56:58;77.05;;;27.45;;
38693;SDS011;24447;43.460;25.744;2023-11-21T06:59:23;122.55;;;40.85;;
38693;SDS011;24447;43.460;25.744;2023-11-21T07:01:50;82.97;;;31.63;;
38693;SDS011;24447;43.460;25.744;2023-11-21T07:04:16;76.75;;;31.23;;
38693;SDS011;24447;43.460;25.744;2023-11-21T07:06:43;40.10;;;15.82;;
38693;SDS011;24447;43.460;25.744;2023-11-21T07:09:09;20.88;;;8.77;;
38693;SDS011;24447;43.460;25.744;2023-11-21T07:11:36;23.08;;;8.52;;
38693;SDS011;24447;43.460;25.744;2023-11-21T07:14:05;35.35;;;15.85;;
38693;SDS011;24447;43.460;25.744;2023-11-21T07:16:38;39.47;;;14.93;;
38693;SDS011;24447;43.460;25.744;2023-11-21T07:19:05;54.08;;;26.35;;
38693;SDS011;24447;43.460;25.744;2023-11-21T07:21:37;61.63;;;24.42;;
38693;SDS011;24447;43.460;25.744;2023-11-21T07:24:03;119.72;;;54.05;;
38693;SDS011;24447;43.460;25.744;2023-11-21T07:26:30;82.25;;;35.35;;
38693;SDS011;24447;43.460;25.744;2023-11-21T07:28:56;96.43;;;38.50;;
38693;SDS011;24447;43.460;25.744;2023-11-21T07:31:22;67.40;;;32.97;;
38693;SDS011;24447;43.460;25.744;2023-11-21T07:33:49;76.03;;;30.73;;
38693;SDS011;24447;43.460;25.744;2023-11-21T07:36:15;68.22;;;32.50;;
38693;SDS011;24447;43.460;25.744;2023-11-21T07:38:51;87.53;;;35.22;;
38693;SDS011;24447;43.460;25.744;2023-11-21T07:41:17;64.38;;;26.23;;
38693;SDS011;24447;43.460;25.744;2023-11-21T07:43:44;59.63;;;25.63;;
38693;SDS011;24447;43.460;25.744;2023-11-21T07:46:10;55.53;;;22.10;;
38693;SDS011;24447;43.460;25.744;2023-11-21T07:48:40;51.85;;;18.77;;
38693;SDS011;24447;43.460;25.744;2023-11-21T07:51:07;41.42;;;15.30;;
38693;SDS011;24447;43.460;25.744;2023-11-21T07:53:34;42.67;;;18.67;;
38693;SDS011;24447;43.460;25.744;2023-11-21T07:56:03;62.03;;;26.27;;
38693;SDS011;24447;43.460;25.744;2023-11-21T07:58:34;46.70;;;19.92;;
38693;SDS011;24447;43.460;25.744;2023-11-21T08:01:00;46.65;;;20.27;;
38693;SDS011;24447;43.460;25.744;2023-11-21T08:03:26;48.17;;;22.80;;
38693;SDS011;24447;43.460;25.744;2023-11-21T08:05:54;53.35;;;23.38;;
38693;SDS011;24447;43.460;25.744;2023-11-21T08:08:21;35.08;;;13.55;;
38693;SDS011;24447;43.460;25.744;2023-11-21T08:10:47;32.75;;;12.45;;
38693;SDS011;24447;43.460;25.744;2023-11-21T08:13:13;27.13;;;11.05;;
38693;SDS011;24447;43.460;25.744;2023-11-21T08:15:42;49.65;;;18.95;;
38693;SDS011;24447;43.460;25.744;2023-11-21T08:18:11;45.67;;;22.10;;
38693;SDS011;24447;43.460;25.744;2023-11-21T08:20:39;45.50;;;19.08;;
38693;SDS011;24447;43.460;25.744;2023-11-21T08:23:06;34.97;;;15.00;;
38693;SDS011;24447;43.460;25.744;2023-11-21T08:25:32;36.25;;;15.55;;
38693;SDS011;24447;43.460;25.744;2023-11-21T08:27:59;39.58;;;13.27;;
38693;SDS011;24447;43.460;25.744;2023-11-21T08:30:26;37.95;;;15.60;;
38693;SDS011;24447;43.460;25.744;2023-11-21T08:32:55;38.25;;;14.18;;
38693;SDS011;24447;43.460;25.744;2023-11-21T08:35:23;27.20;;;10.65;;
38693;SDS011;24447;43.460;25.744;2023-11-21T08:37:52;13.02;;;5.55;;
38693;SDS011;24447;43.460;25.744;2023-11-21T08:40:19;18.30;;;6.75;;
38693;SDS011;24447;43.460;25.744;2023-11-21T08:42:46;14.93;;;6.38;;
38693;SDS011;24447;43.460;25.744;2023-11-21T08:45:13;21.65;;;7.65;;
38693;SDS011;24447;43.460;25.744;2023-11-21T08:47:40;23.77;;;10.20;;
38693;SDS011;24447;43.460;25.744;2023-11-21T08:50:06;22.33;;;9.10;;
38693;SDS011;24447;43.460;25.744;2023-11-21T08:52:33;28.55;;;10.45;;
38693;SDS011;24447;43.460;25.744;2023-11-21T08:55:02;18.95;;;6.72;;
38693;SDS011;24447;43.460;25.744;2023-11-21T08:57:33;17.00;;;6.72;;
38693;SDS011;24447;43.460;25.744;2023-11-21T09:00:00;17.13;;;6.07;;
38693;SDS011;24447;43.460;25.744;2023-11-21T09:02:26;17.80;;;6.65;;
38693;SDS011;24447;43.460;25.744;2023-11-21T09:04:52;15.75;;;5.53;;
38693;SDS011;24447;43.460;25.744;2023-11-21T09:07:18;22.17;;;10.23;;
38693;SDS011;24447;43.460;25.744;2023-11-21T09:09:48;33.85;;;11.73;;
38693;SDS011;24447;43.460;25.744;2023-11-21T09:12:14;42.35;;;21.23;;
38693;SDS011;24447;43.460;25.744;2023-11-21T09:14:42;49.08;;;17.85;;
38693;SDS011;24447;43.460;25.744;2023-11-21T09:17:09;54.90;;;15.35;;
38693;SDS011;24447;43.460;25.744;2023-11-21T09:19:39;24.03;;;8.23;;
38693;SDS011;24447;43.460;25.744;2023-11-21T09:22:05;28.63;;;13.65;;
38693;SDS011;24447;43.460;25.744;2023-11-21T09:24:32;104.90;;;52.55;;
38693;SDS011;24447;43.460;25.744;2023-11-21T09:26:58;91.53;;;56.85;;
38693;SDS011;24447;43.460;25.744;2023-11-21T09:29:25;38.50;;;15.52;;
38693;SDS011;24447;43.460;25.744;2023-11-21T09:31:52;24.80;;;7.88;;
38693;SDS011;24447;43.460;25.744;2023-11-21T09:34:19;14.48;;;5.18;;
38693;SDS011;24447;43.460;25.744;2023-11-21T09:36:46;12.52;;;3.85;;
38693;SDS011;24447;43.460;25.744;2023-11-21T09:39:12;15.25;;;6.13;;
38693;SDS011;24447;43.460;25.744;2023-11-21T09:41:43;10.52;;;4.57;;
38693;SDS011;24447;43.460;25.744;2023-11-21T09:44:35;14.88;;;4.28;;
38693;SDS011;24447;43.460;25.744;2023-11-21T09:47:02;9.40;;;3.97;;
38693;SDS011;24447;43.460;25.744;2023-11-21T09:49:28;16.27;;;4.93;;
38693;SDS011;24447;43.460;25.744;2023-11-21T09:52:00;12.27;;;4.53;;
38693;SDS011;24447;43.460;25.744;2023-11-21T09:54:28;12.57;;;4.20;;
38693;SDS011;24447;43.460;25.744;2023-11-21T09:56:56;13.35;;;4.15;;
38693;SDS011;24447;43.460;25.744;2023-11-21T09:59:23;11.57;;;4.85;;
38693;SDS011;24447;43.460;25.744;2023-11-21T10:01:49;11.88;;;4.90;;
38693;SDS011;24447;43.460;25.744;2023-11-21T10:04:15;12.20;;;5.53;;
38693;SDS011;24447;43.460;25.744;2023-11-21T10:06:42;14.18;;;5.05;;
38693;SDS011;24447;43.460;25.744;2023-11-21T10:09:12;32.03;;;9.80;;
38693;SDS011;24447;43.460;25.744;2023-11-21T10:11:43;20.85;;;6.60;;
38693;SDS011;24447;43.460;25.744;2023-11-21T10:14:12;19.88;;;7.43;;
38693;SDS011;24447;43.460;25.744;2023-11-21T10:16:39;27.05;;;8.13;;
38693;SDS011;24447;43.460;25.744;2023-11-21T10:19:08;17.80;;;6.10;;
38693;SDS011;24447;43.460;25.744;2023-11-21T10:21:35;23.38;;;7.97;;
38693;SDS011;24447;43.460;25.744;2023-11-21T10:24:02;14.75;;;4.03;;
38693;SDS011;24447;43.460;25.744;2023-11-21T10:26:28;7.63;;;2.70;;
38693;SDS011;24447;43.460;25.744;2023-11-21T10:29:00;8.23;;;3.08;;
38693;SDS011;24447;43.460;25.744;2023-11-21T10:31:32;5.80;;;3.20;;
38693;SDS011;24447;43.460;25.744;2023-11-21T10:34:15;10.90;;;3.10;;
38693;SDS011;24447;43.460;25.744;2023-11-21T10:36:45;9.35;;;3.55;;
38693;SDS011;24447;43.460;25.744;2023-11-21T10:39:20;10.40;;;3.35;;
38693;SDS011;24447;43.460;25.744;2023-11-21T10:41:48;7.47;;;3.40;;
38693;SDS011;24447;43.460;25.744;2023-11-21T10:44:19;6.47;;;2.42;;
38693;SDS011;24447;43.460;25.744;2023-11-21T10:46:52;2.65;;;2.13;;
38693;SDS011;24447;43.460;25.744;2023-11-21T10:49:24;3.75;;;2.03;;
38693;SDS011;24447;43.460;25.744;2023-11-21T10:51:51;7.55;;;2.63;;
38693;SDS011;24447;43.460;25.744;2023-11-21T10:54:19;6.53;;;2.55;;
38693;SDS011;24447;43.460;25.744;2023-11-21T10:56:46;5.72;;;2.58;;
38693;SDS011;24447;43.460;25.744;2023-11-21T10:59:16;10.77;;;3.08;;
38693;SDS011;24447;43.460;25.744;2023-11-21T11:01:43;10.82;;;3.55;;
38693;SDS011;24447;43.460;25.744;2023-11-21T11:04:11;4.57;;;2.28;;
38693;SDS011;24447;43.460;25.744;2023-11-21T11:07:25;10.35;;;3.55;;
38693;SDS011;24447;43.460;25.744;2023-11-21T11:09:31;4.85;;;2.63;;
38693;SDS011;24447;43.460;25.744;2023-11-21T11:12:01;6.45;;;2.83;;
38693;SDS011;24447;43.460;25.744;2023-11-21T11:14:29;3.63;;;1.95;;
38693;SDS011;24447;43.460;25.744;2023-11-21T11:16:57;12.52;;;5.22;;
38693;SDS011;24447;43.460;25.744;2023-11-21T11:19:25;19.55;;;6.25;;
38693;SDS011;24447;43.460;25.744;2023-11-21T11:27:18;7.45;;;2.65;;
38693;SDS011;24447;43.460;25.744;2023-11-21T11:35:10;7.65;;;3.35;;
38693;SDS011;24447;43.460;25.744;2023-11-21T11:37:42;5.10;;;2.17;;
38693;SDS011;24447;43.460;25.744;2023-11-21T11:40:10;7.97;;;4.00;;
38693;SDS011;24447;43.460;25.744;2023-11-21T11:42:37;10.88;;;4.40;;
38693;SDS011;24447;43.460;25.744;2023-11-21T11:45:17;7.05;;;3.80;;
38693;SDS011;24447;43.460;25.744;2023-11-21T11:47:44;11.10;;;3.58;;
38693;SDS011;24447;43.460;25.744;2023-11-21T11:50:13;6.47;;;2.50;;
38693;SDS011;24447;43.460;25.744;2023-11-21T11:52:48;3.72;;;2.45;;
38693;SDS011;24447;43.460;25.744;2023-11-21T11:55:20;8.23;;;3.30;;
38693;SDS011;24447;43.460;25.744;2023-11-21T11:57:47;11.93;;;2.78;;
38693;SDS011;24447;43.460;25.744;2023-11-21T12:00:17;7.97;;;2.50;;
38693;SDS011;24447;43.460;25.744;2023-11-21T12:02:49;7.07;;;1.67;;
38693;SDS011;24447;43.460;25.744;2023-11-21T12:05:17;6.72;;;2.47;;
38693;SDS011;24447;43.460;25.744;2023-11-21T12:07:51;12.10;;;4.00;;
38693;SDS011;24447;43.460;25.744;2023-11-21T12:10:21;6.38;;;2.72;;
38693;SDS011;24447;43.460;25.744;2023-11-21T12:12:50;10.00;;;2.90;;
38693;SDS011;24447;43.460;25.744;2023-11-21T12:15:18;7.50;;;3.17;;
38693;SDS011;24447;43.460;25.744;2023-11-21T12:17:44;14.32;;;5.32;;
38693;SDS011;24447;43.460;25.744;2023-11-21T12:20:11;37.15;;;6.90;;
38693;SDS011;24447;43.460;25.744;2023-11-21T12:22:45;16.25;;;5.35;;
38693;SDS011;24447;43.460;25.744;2023-11-21T12:25:22;18.02;;;5.85;;
38693;SDS011;24447;43.460;25.744;2023-11-21T12:27:51;14.65;;;4.85;;
38693;SDS011;24447;43.460;25.744;2023-11-21T12:30:19;11.43;;;3.50;;
38693;SDS011;24447;43.460;25.744;2023-11-21T12:32:50;13.18;;;5.22;;
38693;SDS011;24447;43.460;25.744;2023-11-21T12:35:18;7.90;;;3.13;;
38693;SDS011;24447;43.460;25.744;2023-11-21T12:37:45;2.97;;;1.55;;
38693;SDS011;24447;43.460;25.744;2023-11-21T12:40:12;16.27;;;5.80;;
38693;SDS011;24447;43.460;25.744;2023-11-21T12:42:46;9.35;;;3.72;;
38693;SDS011;24447;43.460;25.744;2023-11-21T12:47:46;2.90;;;1.55;;
38693;SDS011;24447;43.460;25.744;2023-11-21T12:50:22;28.50;;;10.57;;
38693;SDS011;24447;43.460;25.744;2023-11-21T12:52:50;18.58;;;6.35;;
38693;SDS011;24447;43.460;25.744;2023-11-21T12:55:19;7.93;;;3.03;;
38693;SDS011;24447;43.460;25.744;2023-11-21T12:57:50;5.85;;;2.03;;
38693;SDS011;24447;43.460;25.744;2023-11-21T13:00:19;1.50;;;1.10;;
38693;SDS011;24447;43.460;25.744;2023-11-21T13:02:53;2.17;;;0.95;;
38693;SDS011;24447;43.460;25.744;2023-11-21T13:05:33;7.47;;;1.17;;
38693;SDS011;24447;43.460;25.744;2023-11-21T13:08:03;2.05;;;0.75;;
38693;SDS011;24447;43.460;25.744;2023-11-21T13:10:33;1.48;;;0.85;;
38693;SDS011;24447;43.460;25.744;2023-11-21T13:13:01;0.85;;;0.35;;
38693;SDS011;24447;43.460;25.744;2023-11-21T13:15:33;0.90;;;0.60;;
38693;SDS011;24447;43.460;25.744;2023-11-21T13:18:01;0.52;;;0.52;;
38693;SDS011;24447;43.460;25.744;2023-11-21T13:20:28;2.05;;;0.65;;
38693;SDS011;24447;43.460;25.744;2023-11-21T13:22:57;0.90;;;0.90;;
38693;SDS011;24447;43.460;25.744;2023-11-21T13:25:27;2.60;;;0.98;;
38693;SDS011;24447;43.460;25.744;2023-11-21T13:27:57;0.65;;;0.60;;
38693;SDS011;24447;43.460;25.744;2023-11-21T13:30:24;1.33;;;1.00;;
38693;SDS011;24447;43.460;25.744;2023-11-21T13:35:35;2.15;;;1.50;;
38693;SDS011;24447;43.460;25.744;2023-11-21T13:38:11;3.28;;;1.77;;
38693;SDS011;24447;43.460;25.744;2023-11-21T13:40:39;7.40;;;2.13;;
38693;SDS011;24447;43.460;25.744;2023-11-21T13:43:11;3.97;;;1.85;;
38693;SDS011;24447;43.460;25.744;2023-11-21T13:45:41;10.27;;;2.58;;
38693;SDS011;24447;43.460;25.744;2023-11-21T13:48:09;8.90;;;3.60;;
38693;SDS011;24447;43.460;25.744;2023-11-21T13:50:36;6.95;;;2.53;;
38693;SDS011;24447;43.460;25.744;2023-11-21T13:53:02;5.85;;;1.98;;
38693;SDS011;24447;43.460;25.744;2023-11-21T13:55:43;4.70;;;1.80;;
38693;SDS011;24447;43.460;25.744;2023-11-21T13:58:10;7.28;;;2.75;;
38693;SDS011;24447;43.460;25.744;2023-11-21T14:00:43;7.70;;;2.50;;
38693;SDS011;24447;43.460;25.744;2023-11-21T14:03:21;8.00;;;2.90;;
38693;SDS011;24447;43.460;25.744;2023-11-21T14:05:48;12.23;;;3.80;;
38693;SDS011;24447;43.460;25.744;2023-11-21T14:08:20;11.88;;;3.60;;
38693;SDS011;24447;43.460;25.744;2023-11-21T14:10:48;13.45;;;4.60;;
38693;SDS011;24447;43.460;25.744;2023-11-21T14:13:16;9.23;;;2.97;;
38693;SDS011;24447;43.460;25.744;2023-11-21T14:15:43;6.80;;;3.17;;
38693;SDS011;24447;43.460;25.744;2023-11-21T14:18:11;20.67;;;7.57;;
38693;SDS011;24447;43.460;25.744;2023-11-21T14:20:42;25.65;;;9.73;;
38693;SDS011;24447;43.460;25.744;2023-11-21T14:23:09;11.63;;;3.83;;
38693;SDS011;24447;43.460;25.744;2023-11-21T14:25:37;16.25;;;4.63;;
38693;SDS011;24447;43.460;25.744;2023-11-21T14:28:04;10.43;;;4.20;;
38693;SDS011;24447;43.460;25.744;2023-11-21T14:30:36;12.75;;;5.20;;
38693;SDS011;24447;43.460;25.744;2023-11-21T14:33:04;13.40;;;5.55;;
38693;SDS011;24447;43.460;25.744;2023-11-21T14:35:31;21.13;;;5.53;;
38693;SDS011;24447;43.460;25.744;2023-11-21T14:37:58;35.50;;;17.00;;
38693;SDS011;24447;43.460;25.744;2023-11-21T14:40:25;25.70;;;9.00;;
38693;SDS011;24447;43.460;25.744;2023-11-21T14:45:22;13.25;;;5.80;;
38693;SDS011;24447;43.460;25.744;2023-11-21T14:47:51;18.70;;;4.93;;